sensor_id;sensor_type;location;lat;lon;timestamp;P1;durP1;ratioP1;P2;durP2;ratioP2
20251;SDS011;10284;58.364;15.550;2023-02-01T00:01:17;6.70;;;3.08;;
20251;SDS011;10284;58.364;15.550;2023-02-01T00:03:43;6.22;;;2.83;;
20251;SDS011;10284;58.364;15.550;2023-02-01T00:06:08;5.88;;;3.25;;
20251;SDS011;10284;58.364;15.550;2023-02-01T00:08:34;5.18;;;3.13;;
20251;SDS011;10284;58.364;15.550;2023-02-01T00:11:01;6.53;;;3.05;;
20251;SDS011;10284;58.364;15.550;2023-02-01T00:13:31;6.05;;;3.30;;
20251;SDS011;10284;58.364;15.550;2023-02-01T00:16:04;4.82;;;3.30;;
20251;SDS011;10284;58.364;15.550;2023-02-01T00:18:45;4.78;;;3.08;;
20251;SDS011;10284;58.364;15.550;2023-02-01T00:21:15;6.38;;;3.03;;
20251;SDS011;10284;58.364;15.550;2023-02-01T00:23:42;6.18;;;3.08;;
20251;SDS011;10284;58.364;15.550;2023-02-01T00:26:14;5.60;;;2.78;;
20251;SDS011;10284;58.364;15.550;2023-02-01T00:28:40;3.97;;;2.67;;
20251;SDS011;10284;58.364;15.550;2023-02-01T00:31:06;4.40;;;2.97;;
20251;SDS011;10284;58.364;15.550;2023-02-01T00:33:31;3.75;;;2.60;;
20251;SDS011;10284;58.364;15.550;2023-02-01T00:35:58;2.97;;;2.38;;
20251;SDS011;10284;58.364;15.550;2023-02-01T00:38:26;3.50;;;2.45;;
20251;SDS011;10284;58.364;15.550;2023-02-01T00:40:52;5.38;;;2.53;;
20251;SDS011;10284;58.364;15.550;2023-02-01T00:43:18;3.17;;;2.30;;
20251;SDS011;10284;58.364;15.550;2023-02-01T00:45:45;2.17;;;1.98;;
20251;SDS011;10284;58.364;15.550;2023-02-01T00:48:10;3.05;;;2.13;;
20251;SDS011;10284;58.364;15.550;2023-02-01T00:50:40;3.17;;;2.30;;
20251;SDS011;10284;58.364;15.550;2023-02-01T00:53:11;3.03;;;2.08;;
20251;SDS011;10284;58.364;15.550;2023-02-01T00:55:36;2.22;;;2.03;;
20251;SDS011;10284;58.364;15.550;2023-02-01T00:58:02;4.65;;;2.00;;
20251;SDS011;10284;58.364;15.550;2023-02-01T01:00:31;3.00;;;1.90;;
20251;SDS011;10284;58.364;15.550;2023-02-01T01:02:57;2.75;;;2.15;;
20251;SDS011;10284;58.364;15.550;2023-02-01T01:05:22;2.25;;;2.05;;
20251;SDS011;10284;58.364;15.550;2023-02-01T01:07:48;2.75;;;2.22;;
20251;SDS011;10284;58.364;15.550;2023-02-01T01:10:14;1.95;;;1.80;;
20251;SDS011;10284;58.364;15.550;2023-02-01T01:12:40;5.65;;;2.20;;
20251;SDS011;10284;58.364;15.550;2023-02-01T01:15:05;3.53;;;2.30;;
20251;SDS011;10284;58.364;15.550;2023-02-01T01:17:31;3.08;;;2.20;;
20251;SDS011;10284;58.364;15.550;2023-02-01T01:19:57;4.97;;;2.13;;
20251;SDS011;10284;58.364;15.550;2023-02-01T01:22:23;4.20;;;2.05;;
20251;SDS011;10284;58.364;15.550;2023-02-01T01:24:48;2.05;;;1.85;;
20251;SDS011;10284;58.364;15.550;2023-02-01T01:27:14;5.10;;;2.33;;
20251;SDS011;10284;58.364;15.550;2023-02-01T01:29:39;2.95;;;2.00;;
20251;SDS011;10284;58.364;15.550;2023-02-01T01:32:05;3.30;;;2.17;;
20251;SDS011;10284;58.364;15.550;2023-02-01T01:34:30;2.55;;;1.77;;
20251;SDS011;10284;58.364;15.550;2023-02-01T01:36:56;5.28;;;1.85;;
20251;SDS011;10284;58.364;15.550;2023-02-01T01:39:21;2.65;;;1.63;;
20251;SDS011;10284;58.364;15.550;2023-02-01T01:41:47;4.05;;;1.70;;
20251;SDS011;10284;58.364;15.550;2023-02-01T01:47:15;3.88;;;1.50;;
20251;SDS011;10284;58.364;15.550;2023-02-01T01:49:41;4.05;;;1.80;;
20251;SDS011;10284;58.364;15.550;2023-02-01T01:52:07;3.33;;;1.83;;
20251;SDS011;10284;58.364;15.550;2023-02-01T01:54:33;4.47;;;1.63;;
20251;SDS011;10284;58.364;15.550;2023-02-01T01:57:04;1.70;;;1.40;;
20251;SDS011;10284;58.364;15.550;2023-02-01T01:59:34;7.53;;;1.83;;
20251;SDS011;10284;58.364;15.550;2023-02-01T02:02:01;4.13;;;1.67;;
20251;SDS011;10284;58.364;15.550;2023-02-01T02:04:27;2.47;;;1.42;;
20251;SDS011;10284;58.364;15.550;2023-02-01T02:09:32;4.45;;;1.42;;
20251;SDS011;10284;58.364;15.550;2023-02-01T02:11:58;4.60;;;1.40;;
20251;SDS011;10284;58.364;15.550;2023-02-01T02:14:24;3.70;;;1.58;;
20251;SDS011;10284;58.364;15.550;2023-02-01T02:22:45;6.28;;;1.80;;
20251;SDS011;10284;58.364;15.550;2023-02-01T02:30:55;3.60;;;1.40;;
20251;SDS011;10284;58.364;15.550;2023-02-01T02:41:44;4.35;;;1.70;;
20251;SDS011;10284;58.364;15.550;2023-02-01T02:47:27;5.50;;;1.25;;
20251;SDS011;10284;58.364;15.550;2023-02-01T02:53:30;5.72;;;1.23;;
20251;SDS011;10284;58.364;15.550;2023-02-01T02:56:18;2.65;;;1.30;;
20251;SDS011;10284;58.364;15.550;2023-02-01T02:59:04;4.40;;;1.30;;
20251;SDS011;10284;58.364;15.550;2023-02-01T03:01:50;2.47;;;1.02;;
20251;SDS011;10284;58.364;15.550;2023-02-01T03:04:35;5.30;;;1.13;;
20251;SDS011;10284;58.364;15.550;2023-02-01T03:13:05;5.88;;;1.30;;
20251;SDS011;10284;58.364;15.550;2023-02-01T03:15:39;3.38;;;1.50;;
20251;SDS011;10284;58.364;15.550;2023-02-01T03:18:20;3.70;;;1.27;;
20251;SDS011;10284;58.364;15.550;2023-02-01T03:20:51;5.63;;;1.27;;
20251;SDS011;10284;58.364;15.550;2023-02-01T03:23:19;2.97;;;1.20;;
20251;SDS011;10284;58.364;15.550;2023-02-01T03:25:47;7.68;;;1.42;;
20251;SDS011;10284;58.364;15.550;2023-02-01T03:28:14;7.50;;;1.40;;
20251;SDS011;10284;58.364;15.550;2023-02-01T03:30:41;6.10;;;1.40;;
20251;SDS011;10284;58.364;15.550;2023-02-01T03:33:16;1.65;;;1.17;;
20251;SDS011;10284;58.364;15.550;2023-02-01T03:41:27;6.65;;;1.80;;
20251;SDS011;10284;58.364;15.550;2023-02-01T03:43:58;6.55;;;1.35;;
20251;SDS011;10284;58.364;15.550;2023-02-01T03:46:30;2.72;;;1.13;;
20251;SDS011;10284;58.364;15.550;2023-02-01T03:49:00;6.72;;;1.40;;
20251;SDS011;10284;58.364;15.550;2023-02-01T03:51:27;7.80;;;1.23;;
20251;SDS011;10284;58.364;15.550;2023-02-01T03:53:53;6.55;;;1.77;;
20251;SDS011;10284;58.364;15.550;2023-02-01T03:56:19;5.88;;;1.30;;
20251;SDS011;10284;58.364;15.550;2023-02-01T03:58:47;4.95;;;1.25;;
20251;SDS011;10284;58.364;15.550;2023-02-01T04:01:24;4.57;;;1.30;;
20251;SDS011;10284;58.364;15.550;2023-02-01T04:03:50;7.60;;;1.30;;
20251;SDS011;10284;58.364;15.550;2023-02-01T04:06:16;12.90;;;1.27;;
20251;SDS011;10284;58.364;15.550;2023-02-01T04:08:44;6.35;;;1.38;;
20251;SDS011;10284;58.364;15.550;2023-02-01T04:11:09;5.25;;;1.08;;
20251;SDS011;10284;58.364;15.550;2023-02-01T04:13:34;9.32;;;1.30;;
20251;SDS011;10284;58.364;15.550;2023-02-01T04:16:00;2.67;;;1.10;;
20251;SDS011;10284;58.364;15.550;2023-02-01T04:18:25;6.70;;;1.60;;
20251;SDS011;10284;58.364;15.550;2023-02-01T04:20:51;6.63;;;1.50;;
20251;SDS011;10284;58.364;15.550;2023-02-01T04:23:16;6.47;;;1.30;;
20251;SDS011;10284;58.364;15.550;2023-02-01T04:25:42;6.18;;;1.33;;
20251;SDS011;10284;58.364;15.550;2023-02-01T04:28:07;7.03;;;1.50;;
20251;SDS011;10284;58.364;15.550;2023-02-01T04:30:32;6.65;;;1.23;;
20251;SDS011;10284;58.364;15.550;2023-02-01T04:32:58;5.28;;;1.33;;
20251;SDS011;10284;58.364;15.550;2023-02-01T04:35:23;8.27;;;1.20;;
20251;SDS011;10284;58.364;15.550;2023-02-01T04:37:49;7.10;;;1.33;;
20251;SDS011;10284;58.364;15.550;2023-02-01T04:40:14;11.05;;;1.42;;
20251;SDS011;10284;58.364;15.550;2023-02-01T04:42:40;8.60;;;1.33;;
20251;SDS011;10284;58.364;15.550;2023-02-01T04:45:05;9.35;;;1.50;;
20251;SDS011;10284;58.364;15.550;2023-02-01T04:47:31;6.97;;;1.55;;
20251;SDS011;10284;58.364;15.550;2023-02-01T04:49:57;6.75;;;2.03;;
20251;SDS011;10284;58.364;15.550;2023-02-01T04:52:22;5.88;;;1.38;;
20251;SDS011;10284;58.364;15.550;2023-02-01T04:54:47;8.35;;;1.77;;
20251;SDS011;10284;58.364;15.550;2023-02-01T04:57:13;8.50;;;1.48;;
20251;SDS011;10284;58.364;15.550;2023-02-01T04:59:39;5.93;;;1.63;;
20251;SDS011;10284;58.364;15.550;2023-02-01T05:02:05;7.18;;;1.52;;
20251;SDS011;10284;58.364;15.550;2023-02-01T05:04:30;6.28;;;1.67;;
20251;SDS011;10284;58.364;15.550;2023-02-01T05:06:56;8.73;;;1.77;;
20251;SDS011;10284;58.364;15.550;2023-02-01T05:09:21;6.07;;;1.65;;
20251;SDS011;10284;58.364;15.550;2023-02-01T05:11:47;8.57;;;1.70;;
20251;SDS011;10284;58.364;15.550;2023-02-01T05:14:31;10.60;;;2.58;;
20251;SDS011;10284;58.364;15.550;2023-02-01T05:16:56;9.52;;;2.17;;
20251;SDS011;10284;58.364;15.550;2023-02-01T05:19:22;10.00;;;1.85;;
20251;SDS011;10284;58.364;15.550;2023-02-01T05:21:47;8.70;;;1.48;;
20251;SDS011;10284;58.364;15.550;2023-02-01T05:24:13;13.20;;;1.77;;
20251;SDS011;10284;58.364;15.550;2023-02-01T05:26:40;5.95;;;1.25;;
20251;SDS011;10284;58.364;15.550;2023-02-01T05:29:06;7.80;;;1.52;;
20251;SDS011;10284;58.364;15.550;2023-02-01T05:31:32;11.02;;;1.55;;
20251;SDS011;10284;58.364;15.550;2023-02-01T05:33:57;10.68;;;1.95;;
20251;SDS011;10284;58.364;15.550;2023-02-01T05:36:22;5.43;;;1.42;;
20251;SDS011;10284;58.364;15.550;2023-02-01T05:38:48;7.80;;;1.70;;
20251;SDS011;10284;58.364;15.550;2023-02-01T05:41:14;13.77;;;1.88;;
20251;SDS011;10284;58.364;15.550;2023-02-01T05:43:39;11.95;;;2.28;;
20251;SDS011;10284;58.364;15.550;2023-02-01T05:46:04;10.80;;;1.92;;
20251;SDS011;10284;58.364;15.550;2023-02-01T05:48:30;10.43;;;1.48;;
20251;SDS011;10284;58.364;15.550;2023-02-01T05:50:56;10.30;;;2.05;;
20251;SDS011;10284;58.364;15.550;2023-02-01T05:53:21;9.77;;;2.05;;
20251;SDS011;10284;58.364;15.550;2023-02-01T05:55:46;8.13;;;1.70;;
20251;SDS011;10284;58.364;15.550;2023-02-01T05:58:12;6.05;;;1.50;;
20251;SDS011;10284;58.364;15.550;2023-02-01T06:00:38;8.20;;;1.80;;
20251;SDS011;10284;58.364;15.550;2023-02-01T06:03:03;9.18;;;1.55;;
20251;SDS011;10284;58.364;15.550;2023-02-01T06:05:29;8.30;;;1.65;;
20251;SDS011;10284;58.364;15.550;2023-02-01T06:07:54;12.57;;;1.70;;
20251;SDS011;10284;58.364;15.550;2023-02-01T06:10:20;8.73;;;1.75;;
20251;SDS011;10284;58.364;15.550;2023-02-01T06:12:45;8.35;;;1.50;;
20251;SDS011;10284;58.364;15.550;2023-02-01T06:15:11;10.07;;;2.13;;
20251;SDS011;10284;58.364;15.550;2023-02-01T06:17:37;8.98;;;1.80;;
20251;SDS011;10284;58.364;15.550;2023-02-01T06:20:04;8.57;;;1.90;;
20251;SDS011;10284;58.364;15.550;2023-02-01T06:22:31;9.38;;;1.48;;
20251;SDS011;10284;58.364;15.550;2023-02-01T06:24:57;7.45;;;1.92;;
20251;SDS011;10284;58.364;15.550;2023-02-01T06:27:23;13.30;;;2.03;;
20251;SDS011;10284;58.364;15.550;2023-02-01T06:29:49;11.32;;;1.67;;
20251;SDS011;10284;58.364;15.550;2023-02-01T06:32:14;17.15;;;2.30;;
20251;SDS011;10284;58.364;15.550;2023-02-01T06:34:40;17.05;;;2.03;;
20251;SDS011;10284;58.364;15.550;2023-02-01T06:37:05;14.68;;;1.98;;
20251;SDS011;10284;58.364;15.550;2023-02-01T06:39:31;11.73;;;2.03;;
20251;SDS011;10284;58.364;15.550;2023-02-01T06:41:56;11.60;;;2.05;;
20251;SDS011;10284;58.364;15.550;2023-02-01T06:44:21;9.20;;;1.92;;
20251;SDS011;10284;58.364;15.550;2023-02-01T06:46:47;11.68;;;2.00;;
20251;SDS011;10284;58.364;15.550;2023-02-01T06:49:12;13.20;;;1.95;;
20251;SDS011;10284;58.364;15.550;2023-02-01T06:51:38;13.13;;;2.15;;
20251;SDS011;10284;58.364;15.550;2023-02-01T06:54:03;8.80;;;1.77;;
20251;SDS011;10284;58.364;15.550;2023-02-01T06:56:29;14.57;;;2.90;;
20251;SDS011;10284;58.364;15.550;2023-02-01T06:58:56;14.77;;;2.10;;
20251;SDS011;10284;58.364;15.550;2023-02-01T07:01:22;13.32;;;2.05;;
20251;SDS011;10284;58.364;15.550;2023-02-01T07:03:48;17.08;;;2.10;;
20251;SDS011;10284;58.364;15.550;2023-02-01T07:06:15;6.57;;;1.65;;
20251;SDS011;10284;58.364;15.550;2023-02-01T07:08:40;10.00;;;1.90;;
20251;SDS011;10284;58.364;15.550;2023-02-01T07:11:06;7.53;;;1.50;;
20251;SDS011;10284;58.364;15.550;2023-02-01T07:13:33;10.95;;;1.90;;
20251;SDS011;10284;58.364;15.550;2023-02-01T07:16:03;10.93;;;1.90;;
20251;SDS011;10284;58.364;15.550;2023-02-01T07:18:30;9.43;;;2.53;;
20251;SDS011;10284;58.364;15.550;2023-02-01T07:20:56;16.27;;;1.80;;
20251;SDS011;10284;58.364;15.550;2023-02-01T07:23:21;5.07;;;1.67;;
20251;SDS011;10284;58.364;15.550;2023-02-01T07:25:47;20.15;;;2.17;;
20251;SDS011;10284;58.364;15.550;2023-02-01T07:28:12;9.50;;;2.03;;
20251;SDS011;10284;58.364;15.550;2023-02-01T07:30:38;15.88;;;2.15;;
20251;SDS011;10284;58.364;15.550;2023-02-01T07:33:04;14.63;;;2.28;;
20251;SDS011;10284;58.364;15.550;2023-02-01T07:35:29;8.13;;;1.55;;
20251;SDS011;10284;58.364;15.550;2023-02-01T07:37:56;14.40;;;2.17;;
20251;SDS011;10284;58.364;15.550;2023-02-01T07:40:22;10.75;;;2.67;;
20251;SDS011;10284;58.364;15.550;2023-02-01T07:42:53;11.40;;;1.77;;
20251;SDS011;10284;58.364;15.550;2023-02-01T07:45:19;16.23;;;2.08;;
20251;SDS011;10284;58.364;15.550;2023-02-01T07:47:45;13.63;;;1.80;;
20251;SDS011;10284;58.364;15.550;2023-02-01T07:50:10;8.18;;;1.98;;
20251;SDS011;10284;58.364;15.550;2023-02-01T07:52:36;8.98;;;2.20;;
20251;SDS011;10284;58.364;15.550;2023-02-01T07:55:01;10.27;;;2.00;;
20251;SDS011;10284;58.364;15.550;2023-02-01T07:57:26;13.25;;;2.42;;
20251;SDS011;10284;58.364;15.550;2023-02-01T07:59:52;16.83;;;1.88;;
20251;SDS011;10284;58.364;15.550;2023-02-01T08:02:40;9.05;;;2.10;;
20251;SDS011;10284;58.364;15.550;2023-02-01T08:05:06;9.15;;;2.13;;
20251;SDS011;10284;58.364;15.550;2023-02-01T08:07:32;9.45;;;1.70;;
20251;SDS011;10284;58.364;15.550;2023-02-01T08:09:57;14.20;;;2.33;;
20251;SDS011;10284;58.364;15.550;2023-02-01T08:12:23;10.48;;;1.60;;
20251;SDS011;10284;58.364;15.550;2023-02-01T08:14:49;9.95;;;1.77;;
20251;SDS011;10284;58.364;15.550;2023-02-01T08:17:14;13.23;;;1.77;;
20251;SDS011;10284;58.364;15.550;2023-02-01T08:19:39;10.82;;;2.08;;
20251;SDS011;10284;58.364;15.550;2023-02-01T08:22:05;13.88;;;2.28;;
20251;SDS011;10284;58.364;15.550;2023-02-01T08:24:32;16.52;;;1.95;;
20251;SDS011;10284;58.364;15.550;2023-02-01T08:26:58;9.68;;;1.98;;
20251;SDS011;10284;58.364;15.550;2023-02-01T08:29:25;10.77;;;2.20;;
20251;SDS011;10284;58.364;15.550;2023-02-01T08:31:51;9.80;;;1.95;;
20251;SDS011;10284;58.364;15.550;2023-02-01T08:34:16;8.80;;;2.53;;
20251;SDS011;10284;58.364;15.550;2023-02-01T08:36:42;14.98;;;4.03;;
20251;SDS011;10284;58.364;15.550;2023-02-01T08:39:08;12.20;;;2.47;;
20251;SDS011;10284;58.364;15.550;2023-02-01T08:41:35;6.47;;;1.85;;
20251;SDS011;10284;58.364;15.550;2023-02-01T08:44:00;10.90;;;1.83;;
20251;SDS011;10284;58.364;15.550;2023-02-01T08:46:26;8.30;;;1.88;;
20251;SDS011;10284;58.364;15.550;2023-02-01T08:48:52;9.07;;;1.70;;
20251;SDS011;10284;58.364;15.550;2023-02-01T08:51:18;13.32;;;2.10;;
20251;SDS011;10284;58.364;15.550;2023-02-01T08:53:45;10.65;;;2.05;;
20251;SDS011;10284;58.364;15.550;2023-02-01T08:56:11;14.55;;;2.22;;
20251;SDS011;10284;58.364;15.550;2023-02-01T08:58:37;12.43;;;2.28;;
20251;SDS011;10284;58.364;15.550;2023-02-01T09:01:11;12.85;;;2.13;;
20251;SDS011;10284;58.364;15.550;2023-02-01T09:03:38;15.20;;;1.83;;
20251;SDS011;10284;58.364;15.550;2023-02-01T09:06:04;15.35;;;2.83;;
20251;SDS011;10284;58.364;15.550;2023-02-01T09:08:31;8.90;;;1.60;;
20251;SDS011;10284;58.364;15.550;2023-02-01T09:10:58;13.00;;;3.15;;
20251;SDS011;10284;58.364;15.550;2023-02-01T09:13:27;9.57;;;2.10;;
20251;SDS011;10284;58.364;15.550;2023-02-01T09:15:52;10.07;;;2.20;;
20251;SDS011;10284;58.364;15.550;2023-02-01T09:18:18;13.35;;;2.10;;
20251;SDS011;10284;58.364;15.550;2023-02-01T09:20:44;11.75;;;1.98;;
20251;SDS011;10284;58.364;15.550;2023-02-01T09:23:10;10.95;;;1.50;;
20251;SDS011;10284;58.364;15.550;2023-02-01T09:25:36;12.30;;;2.55;;
20251;SDS011;10284;58.364;15.550;2023-02-01T09:28:02;11.02;;;1.80;;
20251;SDS011;10284;58.364;15.550;2023-02-01T09:30:31;13.88;;;1.90;;
20251;SDS011;10284;58.364;15.550;2023-02-01T09:32:56;8.63;;;1.88;;
20251;SDS011;10284;58.364;15.550;2023-02-01T09:35:22;11.25;;;2.28;;
20251;SDS011;10284;58.364;15.550;2023-02-01T09:37:47;13.18;;;2.25;;
20251;SDS011;10284;58.364;15.550;2023-02-01T09:40:14;11.10;;;1.90;;
20251;SDS011;10284;58.364;15.550;2023-02-01T09:48:15;10.02;;;2.33;;
20251;SDS011;10284;58.364;15.550;2023-02-01T09:50:44;13.52;;;1.90;;
20251;SDS011;10284;58.364;15.550;2023-02-01T09:53:15;13.18;;;2.13;;
20251;SDS011;10284;58.364;15.550;2023-02-01T09:55:47;9.50;;;2.10;;
20251;SDS011;10284;58.364;15.550;2023-02-01T10:00:45;19.25;;;3.33;;
20251;SDS011;10284;58.364;15.550;2023-02-01T10:03:16;8.25;;;1.80;;
20251;SDS011;10284;58.364;15.550;2023-02-01T10:05:54;7.85;;;1.52;;
20251;SDS011;10284;58.364;15.550;2023-02-01T10:14:29;10.18;;;1.80;;
20251;SDS011;10284;58.364;15.550;2023-02-01T10:23:16;17.55;;;2.50;;
20251;SDS011;10284;58.364;15.550;2023-02-01T10:25:54;10.48;;;1.73;;
20251;SDS011;10284;58.364;15.550;2023-02-01T10:28:20;12.30;;;2.33;;
20251;SDS011;10284;58.364;15.550;2023-02-01T10:30:48;9.30;;;1.80;;
20251;SDS011;10284;58.364;15.550;2023-02-01T10:33:16;17.23;;;2.53;;
20251;SDS011;10284;58.364;15.550;2023-02-01T10:35:42;15.13;;;2.15;;
20251;SDS011;10284;58.364;15.550;2023-02-01T10:38:14;10.38;;;1.95;;
20251;SDS011;10284;58.364;15.550;2023-02-01T10:40:44;8.07;;;1.17;;
20251;SDS011;10284;58.364;15.550;2023-02-01T10:43:09;16.60;;;2.25;;
20251;SDS011;10284;58.364;15.550;2023-02-01T10:45:35;9.43;;;1.90;;
20251;SDS011;10284;58.364;15.550;2023-02-01T10:48:04;13.27;;;2.20;;
20251;SDS011;10284;58.364;15.550;2023-02-01T10:58:19;12.15;;;1.67;;
20251;SDS011;10284;58.364;15.550;2023-02-01T11:00:57;11.75;;;2.10;;
20251;SDS011;10284;58.364;15.550;2023-02-01T11:05:59;12.38;;;2.00;;
20251;SDS011;10284;58.364;15.550;2023-02-01T11:08:34;19.40;;;2.40;;
20251;SDS011;10284;58.364;15.550;2023-02-01T11:11:09;12.15;;;2.33;;
20251;SDS011;10284;58.364;15.550;2023-02-01T11:13:37;12.15;;;2.25;;
20251;SDS011;10284;58.364;15.550;2023-02-01T11:16:03;15.85;;;2.22;;
20251;SDS011;10284;58.364;15.550;2023-02-01T11:18:30;10.80;;;2.00;;
20251;SDS011;10284;58.364;15.550;2023-02-01T11:20:57;13.95;;;2.28;;
20251;SDS011;10284;58.364;15.550;2023-02-01T11:23:24;12.70;;;2.08;;
20251;SDS011;10284;58.364;15.550;2023-02-01T11:25:58;17.08;;;2.53;;
20251;SDS011;10284;58.364;15.550;2023-02-01T11:28:25;14.32;;;2.15;;
20251;SDS011;10284;58.364;15.550;2023-02-01T11:30:53;15.25;;;2.50;;
20251;SDS011;10284;58.364;15.550;2023-02-01T11:33:22;14.20;;;2.30;;
20251;SDS011;10284;58.364;15.550;2023-02-01T11:35:52;11.80;;;2.55;;
20251;SDS011;10284;58.364;15.550;2023-02-01T11:38:20;16.05;;;2.35;;
20251;SDS011;10284;58.364;15.550;2023-02-01T11:40:47;12.07;;;2.05;;
20251;SDS011;10284;58.364;15.550;2023-02-01T11:43:27;15.00;;;2.40;;
20251;SDS011;10284;58.364;15.550;2023-02-01T11:46:03;11.73;;;2.53;;
20251;SDS011;10284;58.364;15.550;2023-02-01T11:48:34;15.77;;;2.85;;
20251;SDS011;10284;58.364;15.550;2023-02-01T11:59:44;17.48;;;2.88;;
20251;SDS011;10284;58.364;15.550;2023-02-01T12:07:20;13.27;;;2.28;;
20251;SDS011;10284;58.364;15.550;2023-02-01T12:23:13;14.07;;;3.85;;
20251;SDS011;10284;58.364;15.550;2023-02-01T12:36:46;12.50;;;2.55;;
20251;SDS011;10284;58.364;15.550;2023-02-01T12:42:08;15.48;;;2.88;;
20251;SDS011;10284;58.364;15.550;2023-02-01T12:47:18;28.15;;;4.38;;
20251;SDS011;10284;58.364;15.550;2023-02-01T12:50:03;16.08;;;3.00;;
20251;SDS011;10284;58.364;15.550;2023-02-01T12:52:42;13.77;;;3.22;;
20251;SDS011;10284;58.364;15.550;2023-02-01T12:55:24;15.57;;;3.00;;
20251;SDS011;10284;58.364;15.550;2023-02-01T12:58:12;14.00;;;2.60;;
20251;SDS011;10284;58.364;15.550;2023-02-01T13:00:46;13.23;;;2.58;;
20251;SDS011;10284;58.364;15.550;2023-02-01T13:03:36;21.90;;;3.05;;
20251;SDS011;10284;58.364;15.550;2023-02-01T13:06:51;11.18;;;2.10;;
20251;SDS011;10284;58.364;15.550;2023-02-01T13:09:21;10.15;;;2.35;;
20251;SDS011;10284;58.364;15.550;2023-02-01T13:11:53;8.38;;;2.50;;
20251;SDS011;10284;58.364;15.550;2023-02-01T13:17:12;7.55;;;2.08;;
20251;SDS011;10284;58.364;15.550;2023-02-01T13:22:28;11.27;;;2.10;;
20251;SDS011;10284;58.364;15.550;2023-02-01T13:24:56;12.25;;;2.58;;
20251;SDS011;10284;58.364;15.550;2023-02-01T13:27:28;12.10;;;2.45;;
20251;SDS011;10284;58.364;15.550;2023-02-01T13:29:58;13.38;;;2.60;;
20251;SDS011;10284;58.364;15.550;2023-02-01T13:32:48;5.10;;;1.60;;
20251;SDS011;10284;58.364;15.550;2023-02-01T13:43:52;7.68;;;2.63;;
20251;SDS011;10284;58.364;15.550;2023-02-01T13:46:20;7.03;;;2.05;;
20251;SDS011;10284;58.364;15.550;2023-02-01T13:48:50;6.43;;;2.50;;
20251;SDS011;10284;58.364;15.550;2023-02-01T13:51:28;5.45;;;2.00;;
20251;SDS011;10284;58.364;15.550;2023-02-01T13:54:00;5.60;;;2.28;;
20251;SDS011;10284;58.364;15.550;2023-02-01T13:56:25;5.28;;;2.15;;
20251;SDS011;10284;58.364;15.550;2023-02-01T13:58:51;4.22;;;2.22;;
20251;SDS011;10284;58.364;15.550;2023-02-01T14:03:53;4.75;;;2.13;;
20251;SDS011;10284;58.364;15.550;2023-02-01T14:16:40;5.38;;;2.28;;
20251;SDS011;10284;58.364;15.550;2023-02-01T14:19:30;6.30;;;2.30;;
20251;SDS011;10284;58.364;15.550;2023-02-01T14:24:43;4.40;;;2.22;;
20251;SDS011;10284;58.364;15.550;2023-02-01T14:27:18;4.10;;;2.38;;
20251;SDS011;10284;58.364;15.550;2023-02-01T14:29:50;6.07;;;2.38;;
20251;SDS011;10284;58.364;15.550;2023-02-01T14:32:23;3.85;;;2.30;;
20251;SDS011;10284;58.364;15.550;2023-02-01T14:34:51;4.82;;;2.80;;
20251;SDS011;10284;58.364;15.550;2023-02-01T14:39:56;4.90;;;2.70;;
20251;SDS011;10284;58.364;15.550;2023-02-01T14:45:46;4.93;;;3.20;;
20251;SDS011;10284;58.364;15.550;2023-02-01T14:47:49;4.63;;;2.97;;
20251;SDS011;10284;58.364;15.550;2023-02-01T14:58:16;6.10;;;3.90;;
20251;SDS011;10284;58.364;15.550;2023-02-01T15:00:54;6.15;;;4.15;;
20251;SDS011;10284;58.364;15.550;2023-02-01T15:06:13;6.97;;;4.30;;
20251;SDS011;10284;58.364;15.550;2023-02-01T15:08:44;8.30;;;4.68;;
20251;SDS011;10284;58.364;15.550;2023-02-01T15:11:13;6.78;;;4.47;;
20251;SDS011;10284;58.364;15.550;2023-02-01T15:13:40;6.45;;;4.50;;
20251;SDS011;10284;58.364;15.550;2023-02-01T15:16:13;5.45;;;4.30;;
20251;SDS011;10284;58.364;15.550;2023-02-01T15:18:39;4.90;;;3.92;;
20251;SDS011;10284;58.364;15.550;2023-02-01T15:21:05;3.40;;;2.90;;
20251;SDS011;10284;58.364;15.550;2023-02-01T15:23:32;3.17;;;2.20;;
20251;SDS011;10284;58.364;15.550;2023-02-01T15:25:58;2.40;;;2.20;;
20251;SDS011;10284;58.364;15.550;2023-02-01T15:28:24;3.03;;;2.10;;
20251;SDS011;10284;58.364;15.550;2023-02-01T15:33:27;1.98;;;1.77;;
20251;SDS011;10284;58.364;15.550;2023-02-01T15:35:54;1.70;;;1.60;;
20251;SDS011;10284;58.364;15.550;2023-02-01T15:38:40;2.63;;;2.08;;
20251;SDS011;10284;58.364;15.550;2023-02-01T15:41:08;2.15;;;1.80;;
20251;SDS011;10284;58.364;15.550;2023-02-01T15:43:39;1.85;;;1.75;;
20251;SDS011;10284;58.364;15.550;2023-02-01T15:46:08;2.05;;;1.65;;
20251;SDS011;10284;58.364;15.550;2023-02-01T15:48:39;2.47;;;1.90;;
20251;SDS011;10284;58.364;15.550;2023-02-01T15:51:15;2.88;;;2.00;;
20251;SDS011;10284;58.364;15.550;2023-02-01T15:53:43;2.10;;;1.90;;
20251;SDS011;10284;58.364;15.550;2023-02-01T15:56:10;2.10;;;1.90;;
20251;SDS011;10284;58.364;15.550;2023-02-01T15:58:36;2.78;;;2.20;;
20251;SDS011;10284;58.364;15.550;2023-02-01T16:01:02;4.28;;;2.13;;
20251;SDS011;10284;58.364;15.550;2023-02-01T16:06:10;2.83;;;2.53;;
20251;SDS011;10284;58.364;15.550;2023-02-01T16:08:37;3.13;;;2.53;;
20251;SDS011;10284;58.364;15.550;2023-02-01T16:13:34;2.90;;;2.70;;
20251;SDS011;10284;58.364;15.550;2023-02-01T16:15:59;3.38;;;2.38;;
20251;SDS011;10284;58.364;15.550;2023-02-01T16:18:25;3.10;;;2.55;;
20251;SDS011;10284;58.364;15.550;2023-02-01T16:20:51;3.92;;;2.60;;
20251;SDS011;10284;58.364;15.550;2023-02-01T16:23:16;2.65;;;2.42;;
20251;SDS011;10284;58.364;15.550;2023-02-01T16:25:41;3.20;;;2.22;;
20251;SDS011;10284;58.364;15.550;2023-02-01T16:28:07;3.92;;;2.50;;
20251;SDS011;10284;58.364;15.550;2023-02-01T16:30:33;3.38;;;2.63;;
20251;SDS011;10284;58.364;15.550;2023-02-01T16:32:59;2.97;;;2.40;;
20251;SDS011;10284;58.364;15.550;2023-02-01T16:35:35;3.08;;;2.47;;
20251;SDS011;10284;58.364;15.550;2023-02-01T16:38:05;2.80;;;2.38;;
20251;SDS011;10284;58.364;15.550;2023-02-01T16:40:37;5.53;;;2.70;;
20251;SDS011;10284;58.364;15.550;2023-02-01T16:43:14;2.55;;;2.35;;
20251;SDS011;10284;58.364;15.550;2023-02-01T16:45:44;2.78;;;2.42;;
20251;SDS011;10284;58.364;15.550;2023-02-01T16:48:30;3.95;;;2.65;;
20251;SDS011;10284;58.364;15.550;2023-02-01T16:50:57;2.88;;;2.30;;
20251;SDS011;10284;58.364;15.550;2023-02-01T16:53:25;3.15;;;2.60;;
20251;SDS011;10284;58.364;15.550;2023-02-01T16:55:55;3.47;;;3.03;;
20251;SDS011;10284;58.364;15.550;2023-02-01T16:58:22;3.40;;;2.75;;
20251;SDS011;10284;58.364;15.550;2023-02-01T17:00:48;3.92;;;2.97;;
20251;SDS011;10284;58.364;15.550;2023-02-01T17:03:14;3.55;;;3.00;;
20251;SDS011;10284;58.364;15.550;2023-02-01T17:05:43;3.47;;;2.58;;
20251;SDS011;10284;58.364;15.550;2023-02-01T17:08:12;3.03;;;2.42;;
20251;SDS011;10284;58.364;15.550;2023-02-01T17:10:47;4.60;;;3.05;;
20251;SDS011;10284;58.364;15.550;2023-02-01T17:13:14;3.78;;;2.53;;
20251;SDS011;10284;58.364;15.550;2023-02-01T17:15:41;3.70;;;2.90;;
20251;SDS011;10284;58.364;15.550;2023-02-01T17:18:12;4.50;;;2.90;;
20251;SDS011;10284;58.364;15.550;2023-02-01T17:20:39;3.10;;;2.65;;
20251;SDS011;10284;58.364;15.550;2023-02-01T17:23:06;4.88;;;2.53;;
20251;SDS011;10284;58.364;15.550;2023-02-01T17:25:32;4.65;;;2.53;;
20251;SDS011;10284;58.364;15.550;2023-02-01T17:27:57;3.80;;;2.70;;
20251;SDS011;10284;58.364;15.550;2023-02-01T17:30:23;4.13;;;2.65;;